sensor_id;sensor_type;location;lat;lon;timestamp;pressure;altitude;pressure_sealevel;temperature;humidity
16834;BME280;8533;48.426;10.868;2022-08-04T00:00:53;96211.64;;;20.55;64.52
16834;BME280;8533;48.426;10.868;2022-08-04T00:03:17;96212.39;;;20.47;65.78
16834;BME280;8533;48.426;10.868;2022-08-04T00:06:14;96205.40;;;20.40;65.82
16834;BME280;8533;48.426;10.868;2022-08-04T00:08:47;96206.36;;;20.33;66.08
16834;BME280;8533;48.426;10.868;2022-08-04T00:11:20;96206.55;;;20.25;66.07
16834;BME280;8533;48.426;10.868;2022-08-04T00:13:53;96209.86;;;20.19;66.15
16834;BME280;8533;48.426;10.868;2022-08-04T00:16:22;96211.87;;;20.14;66.49
16834;BME280;8533;48.426;10.868;2022-08-04T00:19:00;96206.70;;;20.09;67.14
16834;BME280;8533;48.426;10.868;2022-08-04T00:21:26;96220.32;;;20.05;67.53
16834;BME280;8533;48.426;10.868;2022-08-04T00:23:54;96217.86;;;19.97;67.87
16834;BME280;8533;48.426;10.868;2022-08-04T00:26:22;96220.64;;;19.92;68.08
16834;BME280;8533;48.426;10.868;2022-08-04T00:28:50;96209.28;;;19.89;67.75
16834;BME280;8533;48.426;10.868;2022-08-04T00:31:18;96211.53;;;19.85;67.69
16834;BME280;8533;48.426;10.868;2022-08-04T00:33:46;96208.19;;;19.79;68.27
16834;BME280;8533;48.426;10.868;2022-08-04T00:36:15;96207.48;;;19.76;68.34
16834;BME280;8533;48.426;10.868;2022-08-04T00:38:43;96207.59;;;19.71;68.26
16834;BME280;8533;48.426;10.868;2022-08-04T00:41:20;96205.06;;;19.66;68.26
16834;BME280;8533;48.426;10.868;2022-08-04T00:44:00;96204.64;;;19.61;68.63
16834;BME280;8533;48.426;10.868;2022-08-04T00:46:34;96204.16;;;19.59;68.97
16834;BME280;8533;48.426;10.868;2022-08-04T00:51:46;96201.97;;;19.50;69.17
16834;BME280;8533;48.426;10.868;2022-08-04T00:54:25;96202.02;;;19.48;69.39
16834;BME280;8533;48.426;10.868;2022-08-04T00:56:56;96200.73;;;19.45;69.64
16834;BME280;8533;48.426;10.868;2022-08-04T00:59:39;96201.08;;;19.41;69.40
16834;BME280;8533;48.426;10.868;2022-08-04T01:02:12;96208.30;;;19.38;69.49
16834;BME280;8533;48.426;10.868;2022-08-04T01:15:17;96204.11;;;19.23;70.79
16834;BME280;8533;48.426;10.868;2022-08-04T01:18:02;96208.95;;;19.21;70.85
16834;BME280;8533;48.426;10.868;2022-08-04T01:20:28;96211.94;;;19.17;70.84
16834;BME280;8533;48.426;10.868;2022-08-04T01:23:31;96211.27;;;19.12;70.79
16834;BME280;8533;48.426;10.868;2022-08-04T01:26:16;96214.25;;;19.08;71.99
16834;BME280;8533;48.426;10.868;2022-08-04T01:28:54;96213.00;;;19.05;71.55
16834;BME280;8533;48.426;10.868;2022-08-04T01:31:24;96208.28;;;19.02;71.57
16834;BME280;8533;48.426;10.868;2022-08-04T01:33:47;96215.73;;;19.00;71.33
16834;BME280;8533;48.426;10.868;2022-08-04T01:36:16;96212.91;;;18.96;71.42
16834;BME280;8533;48.426;10.868;2022-08-04T01:38:45;96219.29;;;18.95;71.72
16834;BME280;8533;48.426;10.868;2022-08-04T01:41:14;96220.91;;;18.94;72.65
16834;BME280;8533;48.426;10.868;2022-08-04T01:43:44;96212.45;;;18.92;72.43
16834;BME280;8533;48.426;10.868;2022-08-04T01:46:14;96215.89;;;18.92;72.50
16834;BME280;8533;48.426;10.868;2022-08-04T01:48:46;96214.61;;;18.90;72.63
16834;BME280;8533;48.426;10.868;2022-08-04T01:51:14;96208.30;;;18.88;73.88
16834;BME280;8533;48.426;10.868;2022-08-04T01:53:43;96211.78;;;18.86;73.45
16834;BME280;8533;48.426;10.868;2022-08-04T01:56:11;96214.43;;;18.86;73.21
16834;BME280;8533;48.426;10.868;2022-08-04T01:58:40;96213.15;;;18.84;73.61
16834;BME280;8533;48.426;10.868;2022-08-04T02:01:09;96216.70;;;18.79;74.00
16834;BME280;8533;48.426;10.868;2022-08-04T02:03:39;96214.83;;;18.80;73.54
16834;BME280;8533;48.426;10.868;2022-08-04T02:11:59;96216.41;;;18.81;73.54
16834;BME280;8533;48.426;10.868;2022-08-04T02:14:27;96216.41;;;18.81;73.41
16834;BME280;8533;48.426;10.868;2022-08-04T02:17:17;96215.91;;;18.79;73.42
16834;BME280;8533;48.426;10.868;2022-08-04T02:20:11;96214.38;;;18.75;73.35
16834;BME280;8533;48.426;10.868;2022-08-04T02:23:34;96210.37;;;18.64;74.56
16834;BME280;8533;48.426;10.868;2022-08-04T02:25:13;96219.32;;;18.65;74.34
16834;BME280;8533;48.426;10.868;2022-08-04T02:27:55;96214.88;;;18.63;74.08
16834;BME280;8533;48.426;10.868;2022-08-04T02:30:19;96214.09;;;18.63;73.99
16834;BME280;8533;48.426;10.868;2022-08-04T02:32:49;96212.30;;;18.58;74.03
16834;BME280;8533;48.426;10.868;2022-08-04T02:35:26;96208.12;;;18.55;74.64
16834;BME280;8533;48.426;10.868;2022-08-04T02:37:54;96205.51;;;18.52;74.50
16834;BME280;8533;48.426;10.868;2022-08-04T02:40:20;96206.58;;;18.51;74.61
16834;BME280;8533;48.426;10.868;2022-08-04T02:42:49;96205.08;;;18.48;74.57
16834;BME280;8533;48.426;10.868;2022-08-04T02:45:18;96203.79;;;18.45;74.56
16834;BME280;8533;48.426;10.868;2022-08-04T02:47:48;96206.19;;;18.44;74.57
16834;BME280;8533;48.426;10.868;2022-08-04T02:50:17;96204.61;;;18.43;74.91
16834;BME280;8533;48.426;10.868;2022-08-04T02:52:47;96201.46;;;18.41;75.14
16834;BME280;8533;48.426;10.868;2022-08-04T02:55:16;96202.10;;;18.36;75.64
16834;BME280;8533;48.426;10.868;2022-08-04T02:57:44;96201.06;;;18.34;75.96
16834;BME280;8533;48.426;10.868;2022-08-04T03:00:15;96191.33;;;18.32;75.75
16834;BME280;8533;48.426;10.868;2022-08-04T03:05:46;96195.12;;;18.26;76.60
16834;BME280;8533;48.426;10.868;2022-08-04T03:08:23;96196.73;;;18.24;76.31
16834;BME280;8533;48.426;10.868;2022-08-04T03:13:49;96196.04;;;18.19;76.99
16834;BME280;8533;48.426;10.868;2022-08-04T03:19:01;96198.50;;;18.15;78.39
16834;BME280;8533;48.426;10.868;2022-08-04T03:30:07;96195.98;;;18.08;78.37
16834;BME280;8533;48.426;10.868;2022-08-04T03:33:00;96197.31;;;18.08;77.98
16834;BME280;8533;48.426;10.868;2022-08-04T03:44:19;96197.63;;;18.04;78.85
16834;BME280;8533;48.426;10.868;2022-08-04T03:50:01;96197.47;;;17.98;78.63
16834;BME280;8533;48.426;10.868;2022-08-04T03:58:09;96192.91;;;17.84;78.36
16834;BME280;8533;48.426;10.868;2022-08-04T04:04:01;96192.55;;;17.75;78.81
16834;BME280;8533;48.426;10.868;2022-08-04T04:12:06;96188.92;;;17.68;78.57
16834;BME280;8533;48.426;10.868;2022-08-04T04:23:45;96191.41;;;17.62;79.98
16834;BME280;8533;48.426;10.868;2022-08-04T04:28:57;96193.74;;;17.66;79.80
16834;BME280;8533;48.426;10.868;2022-08-04T04:37:12;96188.61;;;17.72;81.29
16834;BME280;8533;48.426;10.868;2022-08-04T04:39:58;96193.34;;;17.75;81.20
16834;BME280;8533;48.426;10.868;2022-08-04T04:42:37;96190.35;;;17.79;81.23
16834;BME280;8533;48.426;10.868;2022-08-04T04:46:09;96198.20;;;17.84;81.78
16834;BME280;8533;48.426;10.868;2022-08-04T04:47:54;96196.28;;;17.90;81.65
16834;BME280;8533;48.426;10.868;2022-08-04T04:53:00;96197.61;;;18.20;80.79
16834;BME280;8533;48.426;10.868;2022-08-04T04:55:43;96192.58;;;18.35;80.22
16834;BME280;8533;48.426;10.868;2022-08-04T04:58:10;96203.64;;;18.39;80.37
16834;BME280;8533;48.426;10.868;2022-08-04T05:03:27;96209.66;;;18.58;80.33
16834;BME280;8533;48.426;10.868;2022-08-04T05:13:33;96215.36;;;18.93;77.87
16834;BME280;8533;48.426;10.868;2022-08-04T05:18:48;96226.64;;;19.12;76.48
16834;BME280;8533;48.426;10.868;2022-08-04T05:23:50;96224.25;;;19.24;75.63
16834;BME280;8533;48.426;10.868;2022-08-04T05:26:20;96217.28;;;19.28;76.94
16834;BME280;8533;48.426;10.868;2022-08-04T05:28:53;96218.73;;;19.34;75.41
16834;BME280;8533;48.426;10.868;2022-08-04T05:31:30;96212.48;;;19.41;74.91
16834;BME280;8533;48.426;10.868;2022-08-04T05:33:57;96217.77;;;19.55;74.68
16834;BME280;8533;48.426;10.868;2022-08-04T05:36:33;96216.64;;;19.59;74.58
16834;BME280;8533;48.426;10.868;2022-08-04T05:39:02;96216.33;;;19.71;72.54
16834;BME280;8533;48.426;10.868;2022-08-04T05:41:30;96220.04;;;19.84;71.72
16834;BME280;8533;48.426;10.868;2022-08-04T05:44:00;96218.15;;;19.96;71.63
16834;BME280;8533;48.426;10.868;2022-08-04T05:46:28;96214.36;;;19.99;71.32
16834;BME280;8533;48.426;10.868;2022-08-04T05:48:57;96214.82;;;20.12;71.51
16834;BME280;8533;48.426;10.868;2022-08-04T05:51:24;96211.67;;;20.22;70.84
16834;BME280;8533;48.426;10.868;2022-08-04T05:53:53;96217.53;;;20.32;70.21
16834;BME280;8533;48.426;10.868;2022-08-04T05:56:21;96219.77;;;20.39;70.25
16834;BME280;8533;48.426;10.868;2022-08-04T05:58:51;96219.33;;;20.45;70.08
16834;BME280;8533;48.426;10.868;2022-08-04T06:01:20;96211.78;;;20.50;70.13
16834;BME280;8533;48.426;10.868;2022-08-04T06:03:48;96214.24;;;20.58;70.35
16834;BME280;8533;48.426;10.868;2022-08-04T06:06:17;96211.44;;;20.63;71.25
16834;BME280;8533;48.426;10.868;2022-08-04T06:08:45;96218.64;;;20.82;68.59
16834;BME280;8533;48.426;10.868;2022-08-04T06:11:13;96216.45;;;20.92;68.04
16834;BME280;8533;48.426;10.868;2022-08-04T06:13:47;96213.61;;;21.09;67.66
16834;BME280;8533;48.426;10.868;2022-08-04T06:16:14;96222.66;;;21.19;66.86
16834;BME280;8533;48.426;10.868;2022-08-04T06:18:44;96218.14;;;21.28;66.69
16834;BME280;8533;48.426;10.868;2022-08-04T06:21:14;96216.36;;;21.43;67.29
16834;BME280;8533;48.426;10.868;2022-08-04T06:23:44;96210.98;;;21.54;66.68
16834;BME280;8533;48.426;10.868;2022-08-04T06:26:12;96209.89;;;21.73;64.81
16834;BME280;8533;48.426;10.868;2022-08-04T06:28:43;96207.98;;;21.82;65.39
16834;BME280;8533;48.426;10.868;2022-08-04T06:31:11;96213.94;;;21.96;65.18
16834;BME280;8533;48.426;10.868;2022-08-04T06:33:41;96219.35;;;22.11;66.21
16834;BME280;8533;48.426;10.868;2022-08-04T06:36:10;96221.44;;;22.28;65.02
16834;BME280;8533;48.426;10.868;2022-08-04T06:38:39;96221.94;;;22.45;63.66
16834;BME280;8533;48.426;10.868;2022-08-04T06:41:08;96220.68;;;22.66;63.40
16834;BME280;8533;48.426;10.868;2022-08-04T06:43:36;96225.04;;;22.79;61.65
16834;BME280;8533;48.426;10.868;2022-08-04T06:46:05;96224.45;;;22.88;60.64
16834;BME280;8533;48.426;10.868;2022-08-04T06:48:34;96225.94;;;23.06;60.24
16834;BME280;8533;48.426;10.868;2022-08-04T06:51:03;96227.41;;;23.25;60.66
16834;BME280;8533;48.426;10.868;2022-08-04T06:53:32;96226.95;;;23.43;59.84
16834;BME280;8533;48.426;10.868;2022-08-04T06:56:00;96231.11;;;23.47;59.63
16834;BME280;8533;48.426;10.868;2022-08-04T06:58:30;96225.23;;;23.68;59.28
16834;BME280;8533;48.426;10.868;2022-08-04T07:00:59;96231.44;;;23.81;59.29
16834;BME280;8533;48.426;10.868;2022-08-04T07:03:28;96225.31;;;23.80;58.27
16834;BME280;8533;48.426;10.868;2022-08-04T07:05:56;96230.35;;;23.88;58.02
16834;BME280;8533;48.426;10.868;2022-08-04T07:08:23;96228.50;;;24.01;58.67
16834;BME280;8533;48.426;10.868;2022-08-04T07:10:51;96229.24;;;24.16;57.71
16834;BME280;8533;48.426;10.868;2022-08-04T07:13:20;96228.52;;;24.33;57.32
16834;BME280;8533;48.426;10.868;2022-08-04T07:15:49;96224.33;;;24.51;56.38
16834;BME280;8533;48.426;10.868;2022-08-04T07:18:16;96224.81;;;24.77;55.86
16834;BME280;8533;48.426;10.868;2022-08-04T07:20:46;96225.30;;;24.91;54.95
16834;BME280;8533;48.426;10.868;2022-08-04T07:23:15;96211.34;;;25.16;54.34
16834;BME280;8533;48.426;10.868;2022-08-04T07:25:54;96222.27;;;25.35;54.13
16834;BME280;8533;48.426;10.868;2022-08-04T07:28:23;96229.36;;;25.68;53.06
16834;BME280;8533;48.426;10.868;2022-08-04T07:30:52;96221.55;;;25.63;52.55
16834;BME280;8533;48.426;10.868;2022-08-04T07:33:20;96221.31;;;25.56;51.83
16834;BME280;8533;48.426;10.868;2022-08-04T07:35:51;96220.77;;;25.68;52.33
16834;BME280;8533;48.426;10.868;2022-08-04T07:38:19;96218.59;;;25.80;52.13
16834;BME280;8533;48.426;10.868;2022-08-04T07:40:46;96226.42;;;26.07;51.83
16834;BME280;8533;48.426;10.868;2022-08-04T07:43:15;96222.27;;;26.37;51.79
16834;BME280;8533;48.426;10.868;2022-08-04T07:45:43;96221.61;;;26.56;51.50
16834;BME280;8533;48.426;10.868;2022-08-04T07:48:11;96220.95;;;26.90;50.18
16834;BME280;8533;48.426;10.868;2022-08-04T07:50:42;96222.38;;;27.19;49.36
16834;BME280;8533;48.426;10.868;2022-08-04T07:53:11;96215.87;;;27.46;48.43
16834;BME280;8533;48.426;10.868;2022-08-04T07:55:40;96216.92;;;27.51;48.71
16834;BME280;8533;48.426;10.868;2022-08-04T07:58:07;96212.52;;;27.68;48.09
16834;BME280;8533;48.426;10.868;2022-08-04T08:00:35;96213.37;;;27.62;47.53
16834;BME280;8533;48.426;10.868;2022-08-04T08:03:03;96221.13;;;27.58;48.02
16834;BME280;8533;48.426;10.868;2022-08-04T08:05:31;96216.56;;;28.16;46.89
16834;BME280;8533;48.426;10.868;2022-08-04T08:07:59;96220.40;;;28.47;46.59
16834;BME280;8533;48.426;10.868;2022-08-04T08:10:27;96216.43;;;28.74;46.11
16834;BME280;8533;48.426;10.868;2022-08-04T08:12:55;96218.11;;;28.59;46.09
16834;BME280;8533;48.426;10.868;2022-08-04T08:15:24;96213.84;;;29.04;45.83
16834;BME280;8533;48.426;10.868;2022-08-04T08:17:52;96215.41;;;29.05;45.24
16834;BME280;8533;48.426;10.868;2022-08-04T08:20:19;96218.23;;;28.76;45.35
16834;BME280;8533;48.426;10.868;2022-08-04T08:22:47;96212.25;;;28.86;44.99
16834;BME280;8533;48.426;10.868;2022-08-04T08:25:16;96207.22;;;28.75;44.99
16834;BME280;8533;48.426;10.868;2022-08-04T08:27:43;96203.31;;;29.61;44.39
16834;BME280;8533;48.426;10.868;2022-08-04T08:30:11;96206.52;;;30.37;43.53
16834;BME280;8533;48.426;10.868;2022-08-04T08:32:39;96198.52;;;30.64;41.70
16834;BME280;8533;48.426;10.868;2022-08-04T08:35:07;96199.93;;;30.51;42.77
16834;BME280;8533;48.426;10.868;2022-08-04T08:37:37;96203.57;;;30.69;41.37
16834;BME280;8533;48.426;10.868;2022-08-04T08:40:26;96201.34;;;30.42;42.26
16834;BME280;8533;48.426;10.868;2022-08-04T08:59:07;96205.55;;;32.73;36.34
16834;BME280;8533;48.426;10.868;2022-08-04T09:01:44;96205.33;;;33.01;36.58
16834;BME280;8533;48.426;10.868;2022-08-04T09:09:35;96206.28;;;33.20;36.37
16834;BME280;8533;48.426;10.868;2022-08-04T09:14:46;96199.75;;;33.86;35.01
16834;BME280;8533;48.426;10.868;2022-08-04T09:17:20;96199.77;;;34.26;33.56
16834;BME280;8533;48.426;10.868;2022-08-04T09:20:00;96204.92;;;34.39;33.82
16834;BME280;8533;48.426;10.868;2022-08-04T09:25:15;96201.91;;;34.26;33.73
16834;BME280;8533;48.426;10.868;2022-08-04T09:27:53;96199.63;;;34.47;32.62
16834;BME280;8533;48.426;10.868;2022-08-04T09:30:35;96200.61;;;34.71;32.96
16834;BME280;8533;48.426;10.868;2022-08-04T09:35:48;96196.03;;;34.90;32.09
16834;BME280;8533;48.426;10.868;2022-08-04T09:38:18;96206.70;;;34.93;31.71
16834;BME280;8533;48.426;10.868;2022-08-04T09:40:50;96203.75;;;34.95;31.81
16834;BME280;8533;48.426;10.868;2022-08-04T09:45:57;96198.98;;;35.51;31.13
16834;BME280;8533;48.426;10.868;2022-08-04T09:48:26;96197.23;;;36.32;30.09
16834;BME280;8533;48.426;10.868;2022-08-04T09:50:57;96197.56;;;36.61;29.14
16834;BME280;8533;48.426;10.868;2022-08-04T09:53:28;96193.41;;;36.53;28.24
16834;BME280;8533;48.426;10.868;2022-08-04T10:01:07;96184.86;;;37.13;26.45
16834;BME280;8533;48.426;10.868;2022-08-04T10:03:34;96184.20;;;36.43;28.67
16834;BME280;8533;48.426;10.868;2022-08-04T10:11:32;96179.00;;;36.25;28.91
16834;BME280;8533;48.426;10.868;2022-08-04T10:14:01;96184.70;;;36.23;28.76
16834;BME280;8533;48.426;10.868;2022-08-04T10:26:59;96185.92;;;36.57;26.66
16834;BME280;8533;48.426;10.868;2022-08-04T10:31:53;96173.34;;;36.90;26.50
16834;BME280;8533;48.426;10.868;2022-08-04T10:34:23;96168.69;;;36.40;26.37
16834;BME280;8533;48.426;10.868;2022-08-04T10:37:23;96173.95;;;36.39;26.74
16834;BME280;8533;48.426;10.868;2022-08-04T10:40:06;96164.83;;;36.88;25.75
16834;BME280;8533;48.426;10.868;2022-08-04T10:45:46;96163.58;;;37.95;27.00
16834;BME280;8533;48.426;10.868;2022-08-04T10:48:21;96158.31;;;38.32;25.74
16834;BME280;8533;48.426;10.868;2022-08-04T10:50:57;96162.95;;;38.43;24.51
16834;BME280;8533;48.426;10.868;2022-08-04T10:53:21;96153.77;;;39.22;25.37
16834;BME280;8533;48.426;10.868;2022-08-04T10:55:52;96157.47;;;39.65;24.42
16834;BME280;8533;48.426;10.868;2022-08-04T10:58:23;96145.38;;;39.92;23.70
16834;BME280;8533;48.426;10.868;2022-08-04T11:00:53;96150.59;;;39.24;23.39
16834;BME280;8533;48.426;10.868;2022-08-04T11:03:25;96148.11;;;39.21;24.14
16834;BME280;8533;48.426;10.868;2022-08-04T11:05:57;96148.74;;;38.32;24.45
16834;BME280;8533;48.426;10.868;2022-08-04T11:08:34;96147.92;;;39.00;24.45
16834;BME280;8533;48.426;10.868;2022-08-04T11:11:30;96153.22;;;38.99;24.04
16834;BME280;8533;48.426;10.868;2022-08-04T11:14:05;96152.24;;;39.13;24.69
16834;BME280;8533;48.426;10.868;2022-08-04T11:19:34;96147.40;;;39.62;24.65
16834;BME280;8533;48.426;10.868;2022-08-04T11:22:10;96143.49;;;39.18;24.49
16834;BME280;8533;48.426;10.868;2022-08-04T11:30:00;96135.75;;;38.44;25.19
16834;BME280;8533;48.426;10.868;2022-08-04T11:32:33;96139.91;;;39.50;24.01
16834;BME280;8533;48.426;10.868;2022-08-04T11:35:03;96131.73;;;39.76;23.64
16834;BME280;8533;48.426;10.868;2022-08-04T11:40:23;96140.27;;;39.15;24.93
16834;BME280;8533;48.426;10.868;2022-08-04T11:42:57;96136.87;;;39.82;23.80
16834;BME280;8533;48.426;10.868;2022-08-04T11:45:33;96134.80;;;39.86;23.35
16834;BME280;8533;48.426;10.868;2022-08-04T11:47:57;96132.56;;;40.01;22.96
16834;BME280;8533;48.426;10.868;2022-08-04T11:50:43;96131.95;;;40.15;24.47
16834;BME280;8533;48.426;10.868;2022-08-04T11:53:13;96135.64;;;40.16;23.36
16834;BME280;8533;48.426;10.868;2022-08-04T11:55:44;96135.97;;;40.18;23.03
16834;BME280;8533;48.426;10.868;2022-08-04T11:58:14;96131.48;;;39.57;23.66
16834;BME280;8533;48.426;10.868;2022-08-04T12:00:50;96132.28;;;39.50;23.45
16834;BME280;8533;48.426;10.868;2022-08-04T12:06:12;96130.66;;;39.52;23.76
16834;BME280;8533;48.426;10.868;2022-08-04T12:17:40;96127.91;;;40.19;23.14
16834;BME280;8533;48.426;10.868;2022-08-04T12:20:08;96117.96;;;38.84;23.98
16834;BME280;8533;48.426;10.868;2022-08-04T12:22:40;96116.06;;;39.76;23.68
16834;BME280;8533;48.426;10.868;2022-08-04T12:25:11;96121.30;;;40.37;24.03
16834;BME280;8533;48.426;10.868;2022-08-04T12:27:59;96121.89;;;40.67;22.54
16834;BME280;8533;48.426;10.868;2022-08-04T12:30:28;96120.16;;;40.60;23.30
16834;BME280;8533;48.426;10.868;2022-08-04T12:33:09;96115.11;;;40.59;22.31
16834;BME280;8533;48.426;10.868;2022-08-04T12:38:13;96120.73;;;40.85;23.20
16834;BME280;8533;48.426;10.868;2022-08-04T12:40:46;96109.09;;;41.37;22.07
16834;BME280;8533;48.426;10.868;2022-08-04T12:43:28;96111.63;;;40.63;22.55
16834;BME280;8533;48.426;10.868;2022-08-04T12:45:59;96105.39;;;38.87;23.69
16834;BME280;8533;48.426;10.868;2022-08-04T12:48:27;96101.73;;;40.23;23.11
16834;BME280;8533;48.426;10.868;2022-08-04T12:50:57;96093.13;;;40.41;23.31
16834;BME280;8533;48.426;10.868;2022-08-04T12:53:39;96092.44;;;40.20;22.89
16834;BME280;8533;48.426;10.868;2022-08-04T12:56:10;96089.00;;;39.45;23.25
16834;BME280;8533;48.426;10.868;2022-08-04T12:58:43;96092.83;;;40.27;22.57
16834;BME280;8533;48.426;10.868;2022-08-04T13:01:22;96099.02;;;40.35;22.30
16834;BME280;8533;48.426;10.868;2022-08-04T13:03:54;96090.66;;;40.14;22.81
16834;BME280;8533;48.426;10.868;2022-08-04T13:06:26;96088.25;;;40.88;23.10
16834;BME280;8533;48.426;10.868;2022-08-04T13:08:55;96079.33;;;40.97;22.50
16834;BME280;8533;48.426;10.868;2022-08-04T13:11:24;96080.84;;;41.10;22.03
16834;BME280;8533;48.426;10.868;2022-08-04T13:13:53;96081.98;;;41.70;21.66
16834;BME280;8533;48.426;10.868;2022-08-04T13:16:29;96081.80;;;40.82;21.58
16834;BME280;8533;48.426;10.868;2022-08-04T13:18:56;96074.51;;;39.86;22.86
16834;BME280;8533;48.426;10.868;2022-08-04T13:21:26;96071.09;;;39.82;22.46
16834;BME280;8533;48.426;10.868;2022-08-04T13:23:57;96072.70;;;40.25;22.45
16834;BME280;8533;48.426;10.868;2022-08-04T13:26:25;96068.52;;;40.33;22.36
16834;BME280;8533;48.426;10.868;2022-08-04T13:28:56;96070.58;;;40.72;22.37
16834;BME280;8533;48.426;10.868;2022-08-04T13:31:26;96064.41;;;40.81;22.18
16834;BME280;8533;48.426;10.868;2022-08-04T13:34:01;96052.27;;;41.08;21.47
16834;BME280;8533;48.426;10.868;2022-08-04T13:36:25;96059.18;;;41.12;21.44
16834;BME280;8533;48.426;10.868;2022-08-04T13:38:59;96060.63;;;40.35;23.25
16834;BME280;8533;48.426;10.868;2022-08-04T13:41:27;96059.82;;;40.65;22.72
16834;BME280;8533;48.426;10.868;2022-08-04T13:43:57;96051.53;;;40.73;22.80
16834;BME280;8533;48.426;10.868;2022-08-04T13:46:30;96056.84;;;41.28;21.93
16834;BME280;8533;48.426;10.868;2022-08-04T13:48:59;96053.59;;;41.47;22.16
16834;BME280;8533;48.426;10.868;2022-08-04T13:51:29;96043.42;;;41.08;22.96
16834;BME280;8533;48.426;10.868;2022-08-04T13:53:59;96042.20;;;41.27;21.77
16834;BME280;8533;48.426;10.868;2022-08-04T13:56:35;96046.52;;;40.59;23.33
16834;BME280;8533;48.426;10.868;2022-08-04T13:59:04;96044.55;;;40.17;23.92
16834;BME280;8533;48.426;10.868;2022-08-04T14:01:34;96041.70;;;39.70;23.03
16834;BME280;8533;48.426;10.868;2022-08-04T14:04:08;96043.91;;;38.91;23.74
16834;BME280;8533;48.426;10.868;2022-08-04T14:06:44;96043.39;;;38.19;24.75
16834;BME280;8533;48.426;10.868;2022-08-04T14:09:16;96041.95;;;38.23;24.67
16834;BME280;8533;48.426;10.868;2022-08-04T14:11:45;96045.41;;;37.91;25.96
16834;BME280;8533;48.426;10.868;2022-08-04T14:14:12;96035.58;;;37.69;25.28
16834;BME280;8533;48.426;10.868;2022-08-04T14:16:53;96029.84;;;36.96;26.61
16834;BME280;8533;48.426;10.868;2022-08-04T14:19:08;96026.85;;;36.79;26.48
16834;BME280;8533;48.426;10.868;2022-08-04T14:21:35;96024.80;;;36.94;26.30
16834;BME280;8533;48.426;10.868;2022-08-04T14:24:01;96023.61;;;36.95;26.90
16834;BME280;8533;48.426;10.868;2022-08-04T14:26:30;96024.30;;;36.80;26.06
16834;BME280;8533;48.426;10.868;2022-08-04T14:29:08;96017.58;;;36.84;26.77
16834;BME280;8533;48.426;10.868;2022-08-04T14:31:35;96015.53;;;36.80;26.58
16834;BME280;8533;48.426;10.868;2022-08-04T14:34:02;96013.06;;;36.54;26.55
16834;BME280;8533;48.426;10.868;2022-08-04T14:36:37;96022.19;;;36.44;27.27
16834;BME280;8533;48.426;10.868;2022-08-04T14:38:57;96019.23;;;36.35;26.33
16834;BME280;8533;48.426;10.868;2022-08-04T14:41:25;96020.72;;;36.40;26.39
16834;BME280;8533;48.426;10.868;2022-08-04T14:43:54;96018.92;;;36.41;26.42
16834;BME280;8533;48.426;10.868;2022-08-04T14:46:23;96016.04;;;36.40;26.31
16834;BME280;8533;48.426;10.868;2022-08-04T14:49:00;96012.77;;;36.25;27.42
16834;BME280;8533;48.426;10.868;2022-08-04T14:51:27;96015.20;;;36.20;26.04
16834;BME280;8533;48.426;10.868;2022-08-04T14:53:56;96005.63;;;35.97;26.26
16834;BME280;8533;48.426;10.868;2022-08-04T14:56:24;96008.91;;;36.00;26.75
16834;BME280;8533;48.426;10.868;2022-08-04T14:59:26;96012.53;;;35.78;27.69
16834;BME280;8533;48.426;10.868;2022-08-04T15:01:27;96013.01;;;35.84;26.77
16834;BME280;8533;48.426;10.868;2022-08-04T15:03:55;96012.60;;;35.74;27.38
16834;BME280;8533;48.426;10.868;2022-08-04T15:06:25;96007.42;;;35.53;27.33
16834;BME280;8533;48.426;10.868;2022-08-04T15:08:56;96010.47;;;35.58;27.86
16834;BME280;8533;48.426;10.868;2022-08-04T15:11:23;96006.61;;;35.56;27.38
16834;BME280;8533;48.426;10.868;2022-08-04T15:13:54;96005.28;;;35.52;27.25
16834;BME280;8533;48.426;10.868;2022-08-04T15:16:23;96009.02;;;35.35;27.75
16834;BME280;8533;48.426;10.868;2022-08-04T15:18:52;96002.19;;;35.24;29.13
16834;BME280;8533;48.426;10.868;2022-08-04T15:21:20;95999.97;;;35.11;29.81
16834;BME280;8533;48.426;10.868;2022-08-04T15:23:49;95995.75;;;34.76;29.07
16834;BME280;8533;48.426;10.868;2022-08-04T15:26:28;95988.94;;;34.54;28.77
16834;BME280;8533;48.426;10.868;2022-08-04T15:28:57;95986.41;;;34.55;29.85
16834;BME280;8533;48.426;10.868;2022-08-04T15:31:24;95988.02;;;34.53;29.02
16834;BME280;8533;48.426;10.868;2022-08-04T15:33:54;95984.28;;;34.55;28.97
16834;BME280;8533;48.426;10.868;2022-08-04T15:36:26;95985.64;;;34.55;29.10
16834;BME280;8533;48.426;10.868;2022-08-04T15:41:36;95979.94;;;34.45;29.45
16834;BME280;8533;48.426;10.868;2022-08-04T15:44:13;95988.25;;;34.46;29.49
16834;BME280;8533;48.426;10.868;2022-08-04T15:49:23;95975.11;;;34.41;28.99
16834;BME280;8533;48.426;10.868;2022-08-04T15:51:46;95974.41;;;34.34;29.87
16834;BME280;8533;48.426;10.868;2022-08-04T15:54:20;95976.83;;;34.25;29.85
16834;BME280;8533;48.426;10.868;2022-08-04T15:56:47;95972.00;;;34.21;29.15
16834;BME280;8533;48.426;10.868;2022-08-04T15:59:15;95973.06;;;34.08;30.34
16834;BME280;8533;48.426;10.868;2022-08-04T16:01:42;95968.86;;;33.78;30.13
16834;BME280;8533;48.426;10.868;2022-08-04T16:04:21;95968.67;;;33.77;30.63
16834;BME280;8533;48.426;10.868;2022-08-04T16:06:48;95967.70;;;33.79;30.46
16834;BME280;8533;48.426;10.868;2022-08-04T16:09:25;95970.22;;;33.78;29.79
16834;BME280;8533;48.426;10.868;2022-08-04T16:11:52;95961.51;;;33.75;30.33
16834;BME280;8533;48.426;10.868;2022-08-04T16:14:31;95965.23;;;33.73;31.14
16834;BME280;8533;48.426;10.868;2022-08-04T16:17:12;95956.17;;;33.57;31.26
16834;BME280;8533;48.426;10.868;2022-08-04T16:19:45;95957.18;;;33.55;31.09
16834;BME280;8533;48.426;10.868;2022-08-04T16:22:35;95961.94;;;33.40;31.24
16834;BME280;8533;48.426;10.868;2022-08-04T16:25:00;95963.92;;;33.29;32.35
16834;BME280;8533;48.426;10.868;2022-08-04T16:27:38;95955.98;;;33.26;31.39
16834;BME280;8533;48.426;10.868;2022-08-04T16:30:06;95955.79;;;33.29;30.76